createdAt,value
2019-04-11T00:04:26.163Z,7.70
2019-04-11T00:09:28.377Z,7.73
2019-04-11T00:14:30.363Z,7.80
2019-04-11T00:19:33.570Z,7.64
2019-04-11T00:24:36.764Z,7.87
2019-04-11T00:29:39.066Z,7.82
2019-04-11T00:34:41.018Z,7.63
2019-04-11T00:39:43.721Z,7.81
2019-04-11T00:44:47.982Z,7.60
2019-04-11T00:49:50.447Z,7.62
2019-04-11T00:54:53.218Z,7.72
2019-04-11T00:59:56.492Z,7.95
2019-04-11T01:04:59.248Z,8.02
2019-04-11T01:10:01.489Z,8.07
2019-04-11T01:15:07.510Z,8.10
2019-04-11T01:20:09.669Z,7.85
2019-04-11T01:25:13.233Z,7.74
2019-04-11T01:30:20.735Z,7.78
2019-04-11T01:35:23.509Z,7.90
2019-04-11T01:40:25.579Z,8.05
2019-04-11T01:45:27.724Z,7.67
2019-04-11T01:50:31.073Z,7.50
2019-04-11T01:55:32.986Z,7.36
2019-04-11T02:00:36.972Z,7.34
2019-04-11T02:05:39.124Z,7.40
2019-04-11T02:10:41.281Z,7.53
2019-04-11T02:15:44.202Z,7.73
2019-04-11T02:20:47.310Z,7.89
2019-04-11T02:25:56.643Z,7.92
2019-04-11T02:31:00.117Z,8.06
2019-04-11T02:36:03.230Z,7.96
2019-04-11T02:41:08.595Z,7.95
2019-04-11T02:46:20.422Z,7.90
2019-04-11T02:51:14.680Z,7.82
2019-04-11T02:56:17.491Z,7.96
2019-04-11T03:01:21.984Z,7.95
2019-04-11T03:06:25.835Z,7.92
2019-04-11T03:11:28.074Z,7.92
2019-04-11T03:16:42.731Z,7.87
2019-04-11T03:21:39.123Z,7.64
2019-04-11T03:26:38.326Z,7.55
2019-04-11T03:32:17.042Z,7.74
2019-04-11T03:37:27.319Z,7.80
2019-04-11T03:42:04.133Z,7.67
2019-04-11T03:47:11.320Z,7.75
2019-04-11T03:51:56.613Z,7.82
2019-04-11T03:56:59.273Z,7.80
2019-04-11T04:02:01.367Z,7.82
2019-04-11T04:07:06.794Z,7.87
2019-04-11T04:12:09.534Z,7.37
2019-04-11T04:17:33.005Z,7.37
2019-04-11T04:22:48.079Z,7.44
2019-04-11T04:27:51.275Z,7.60
2019-04-11T04:32:54.614Z,7.70
2019-04-11T04:37:58.840Z,7.71
2019-04-11T04:43:05.058Z,7.82
2019-04-11T04:48:11.046Z,7.86
2019-04-11T04:53:09.302Z,7.92
2019-04-11T04:58:11.294Z,7.35
2019-04-11T05:03:13.617Z,7.10
2019-04-11T05:08:16.555Z,7.20
2019-04-11T05:13:19.464Z,7.28
2019-04-11T05:18:21.643Z,7.56
2019-04-11T05:23:24.059Z,7.64
2019-04-11T05:28:26.274Z,7.77
2019-04-11T05:33:29.343Z,7.88
2019-04-11T05:38:32.802Z,8.01
2019-04-11T05:43:37.330Z,8.12
2019-04-11T05:48:41.143Z,8.15
2019-04-11T05:53:43.771Z,8.28
2019-04-11T05:58:47.367Z,8.29
2019-04-11T06:03:52.039Z,8.37
2019-04-11T06:09:00.362Z,8.38
2019-04-11T06:14:05.176Z,8.28
2019-04-11T06:19:16.469Z,8.26
2019-04-11T06:24:32.609Z,8.21
2019-04-11T06:29:47.971Z,8.16
2019-04-11T06:35:08.288Z,8.21
2019-04-11T06:40:24.894Z,8.32
2019-04-11T06:45:42.188Z,8.35
2019-04-11T06:51:01.843Z,8.42
2019-04-11T06:56:12.518Z,8.58
2019-04-11T07:01:16.490Z,8.61
2019-04-11T07:06:21.648Z,8.65
2019-04-11T07:11:25.611Z,8.67
2019-04-11T07:16:29.444Z,8.76
2019-04-11T07:21:33.332Z,8.71
2019-04-11T07:26:37.491Z,8.87
2019-04-11T07:31:48.327Z,8.93
2019-04-11T07:37:10.457Z,8.91
2019-04-11T07:42:34.172Z,8.97
2019-04-11T07:47:38.423Z,9.02
2019-04-11T07:52:42.593Z,9.06
2019-04-11T07:57:46.902Z,9.06
2019-04-11T08:02:59.800Z,9.02
2019-04-11T08:08:13.362Z,9.05
2019-04-11T08:13:28.950Z,9.15
2019-04-11T08:18:49.339Z,9.17
2019-04-11T08:23:54.171Z,9.22
2019-04-11T08:29:05.052Z,9.08
2019-04-11T08:34:00.606Z,9.10
2019-04-11T08:39:04.852Z,9.13
2019-04-11T08:44:07.783Z,9.20
2019-04-11T08:49:17.338Z,9.29
2019-04-11T08:54:36.071Z,9.25
2019-04-11T08:59:49.379Z,9.27
2019-04-11T09:05:08.449Z,9.28
2019-04-11T09:10:10.039Z,9.42
2019-04-11T09:15:26.629Z,9.47
2019-04-11T09:20:40.152Z,9.47
2019-04-11T09:25:54.987Z,9.50
2019-04-11T09:31:03.593Z,9.41
2019-04-11T09:36:24.399Z,9.38
2019-04-11T09:41:45.029Z,9.47
2019-04-11T09:46:59.122Z,9.57
2019-04-11T09:52:02.986Z,9.50
2019-04-11T09:57:10.067Z,9.40
2019-04-11T10:02:23.348Z,9.36
2019-04-11T10:07:28.139Z,9.55
2019-04-11T10:12:48.811Z,9.54
2019-04-11T10:18:20.134Z,9.44
2019-04-11T10:23:18.830Z,9.55
2019-04-11T10:28:35.722Z,9.49
2019-04-11T10:33:55.463Z,9.67
2019-04-11T10:39:02.866Z,9.69
2019-04-11T10:44:07.644Z,9.86
2019-04-11T10:49:28.446Z,10.01
2019-04-11T10:54:32.513Z,10.01
2019-04-11T10:59:36.441Z,10.30
2019-04-11T11:04:41.012Z,10.37
2019-04-11T11:09:46.207Z,10.70
2019-04-11T11:14:56.163Z,11.22
2019-04-11T11:20:26.702Z,11.21
2019-04-11T11:25:26.834Z,11.29
2019-04-11T11:30:47.434Z,11.41
2019-04-11T11:35:52.081Z,11.58
2019-04-11T11:40:58.979Z,11.74
2019-04-11T11:46:03.146Z,11.73
2019-04-11T11:51:08.716Z,12.06
2019-04-11T11:56:12.135Z,12.38
2019-04-11T12:01:16.019Z,12.57
2019-04-11T12:06:22.255Z,12.81
2019-04-11T12:11:26.271Z,13.05
2019-04-11T12:16:30.346Z,13.15
2019-04-11T12:21:38.857Z,13.17
2019-04-11T12:26:43.221Z,13.09
2019-04-11T12:31:48.629Z,13.24
2019-04-11T12:36:52.960Z,13.29
2019-04-11T12:41:57.259Z,13.35
2019-04-11T12:47:01.536Z,13.48
2019-04-11T12:52:22.688Z,13.74
2019-04-11T12:57:43.435Z,13.75
2019-04-11T13:03:01.104Z,13.70
2019-04-11T13:08:14.422Z,13.56
2019-04-11T13:13:18.056Z,13.72
2019-04-11T13:18:22.127Z,13.77
2019-04-11T13:23:28.599Z,13.66
2019-04-11T13:28:32.266Z,13.53
2019-04-11T13:33:34.328Z,13.61
2019-04-11T13:38:37.615Z,13.42
2019-04-11T13:43:41.674Z,13.50
2019-04-11T13:48:48.152Z,13.43
2019-04-11T13:54:09.149Z,13.50
2019-04-11T13:59:13.342Z,13.49
2019-04-11T14:04:22.964Z,13.61
2019-04-11T14:09:30.566Z,13.60
2019-04-11T14:14:32.913Z,13.57
2019-04-11T14:19:54.823Z,13.45
2019-04-11T14:25:15.537Z,13.41
2019-04-11T14:30:36.235Z,13.34
2019-04-11T14:35:40.111Z,13.30
2019-04-11T14:41:00.976Z,13.45
2019-04-11T14:45:55.971Z,13.50
2019-04-11T14:51:02.953Z,13.39
2019-04-11T14:56:14.105Z,13.43
2019-04-11T15:01:17.077Z,13.38
2019-04-11T15:06:21.011Z,13.68
2019-04-11T15:11:25.003Z,13.48
2019-04-11T15:16:33.037Z,13.46
2019-04-11T15:21:49.364Z,13.49
2019-04-11T15:26:56.689Z,13.39
2019-04-11T15:32:02.186Z,13.39
2019-04-11T15:37:21.665Z,13.35
2019-04-11T15:42:25.610Z,13.34
2019-04-11T15:47:29.661Z,13.33
2019-04-11T15:52:32.111Z,13.26
2019-04-11T15:57:36.221Z,13.23
2019-04-11T16:02:52.746Z,13.17
2019-04-11T16:08:01.692Z,13.16
2019-04-11T16:13:09.015Z,13.05
2019-04-11T16:18:29.955Z,13.03
2019-04-11T16:23:34.033Z,12.95
2019-04-11T16:28:43.945Z,12.92
2019-04-11T16:33:49.168Z,12.89
2019-04-11T16:39:08.207Z,12.79
2019-04-11T16:44:12.597Z,12.72
2019-04-11T16:49:16.307Z,12.64
2019-04-11T16:54:18.919Z,12.70
2019-04-11T16:59:22.846Z,12.47
2019-04-11T17:04:26.004Z,12.17
2019-04-11T17:09:33.551Z,12.02
2019-04-11T17:14:35.778Z,12.05
2019-04-11T17:19:38.025Z,12.13
2019-04-11T17:24:40.654Z,12.16
2019-04-11T17:29:43.596Z,12.00
2019-04-11T17:34:46.296Z,11.97
2019-04-11T17:39:48.527Z,11.93
2019-04-11T17:44:50.825Z,11.86
2019-04-11T17:49:53.110Z,11.79
2019-04-11T17:54:55.480Z,11.73
2019-04-11T17:59:59.104Z,11.67
2019-04-11T18:05:02.452Z,11.66
2019-04-11T18:10:06.000Z,11.71
2019-04-11T18:15:09.685Z,11.60
2019-04-11T18:20:13.967Z,11.38
2019-04-11T18:25:16.327Z,11.21
2019-04-11T18:30:20.900Z,11.06
2019-04-11T18:35:23.078Z,10.86
2019-04-11T18:40:25.364Z,10.90
2019-04-11T18:45:27.667Z,11.06
2019-04-11T18:50:30.176Z,10.88
2019-04-11T18:55:32.669Z,10.91
2019-04-11T19:00:35.805Z,10.99
2019-04-11T19:05:42.782Z,10.77
2019-04-11T19:10:45.804Z,10.67
2019-04-11T19:15:47.627Z,10.73
2019-04-11T19:20:50.801Z,10.61
2019-04-11T19:25:53.359Z,10.63
2019-04-11T19:30:56.770Z,10.60
2019-04-11T19:35:59.224Z,10.61
2019-04-11T19:41:02.798Z,10.50
2019-04-11T19:46:05.249Z,10.43
2019-04-11T19:51:07.434Z,10.50
2019-04-11T19:56:14.266Z,10.07
2019-04-11T20:01:16.589Z,9.74
2019-04-11T20:06:19.095Z,9.62
2019-04-11T20:11:21.524Z,9.66
2019-04-11T20:16:24.099Z,9.70
2019-04-11T20:21:26.214Z,9.80
2019-04-11T20:26:28.510Z,9.94
2019-04-11T20:31:30.675Z,10.15
2019-04-11T20:36:33.840Z,9.97
2019-04-11T20:41:36.150Z,9.94
2019-04-11T20:46:38.434Z,10.03
2019-04-11T20:51:40.844Z,9.94
2019-04-11T20:56:43.075Z,9.89
2019-04-11T21:01:45.605Z,9.95
2019-04-11T21:06:48.067Z,9.55
2019-04-11T21:11:50.336Z,9.76
2019-04-11T21:16:52.629Z,9.60
2019-04-11T21:21:55.008Z,9.54
2019-04-11T21:26:59.186Z,9.62
2019-04-11T21:32:01.673Z,9.77
2019-04-11T21:37:03.690Z,9.76
2019-04-11T21:42:06.652Z,9.75
2019-04-11T21:47:08.959Z,9.55
2019-04-11T21:52:12.312Z,9.42
2019-04-11T21:57:15.036Z,9.38
2019-04-11T22:02:17.548Z,9.49
2019-04-11T22:07:19.849Z,9.52
2019-04-11T22:12:21.801Z,9.42
2019-04-11T22:17:24.040Z,9.46
2019-04-11T22:22:26.062Z,9.48
2019-04-11T22:27:28.100Z,9.47
2019-04-11T22:32:31.297Z,9.38
2019-04-11T22:37:33.294Z,9.11
2019-04-11T22:42:35.366Z,9.12
2019-04-11T22:47:38.379Z,8.99
2019-04-11T22:52:42.313Z,9.03
2019-04-11T22:57:44.869Z,9.02
2019-04-11T23:02:48.979Z,8.95
2019-04-11T23:07:51.024Z,8.74
2019-04-11T23:12:53.283Z,8.67
2019-04-11T23:17:55.297Z,8.71
2019-04-11T23:22:57.387Z,8.65
2019-04-11T23:27:59.471Z,8.64
2019-04-11T23:33:01.781Z,8.53
2019-04-11T23:38:03.963Z,8.67
2019-04-11T23:43:07.152Z,8.31
2019-04-11T23:48:10.510Z,8.32
2019-04-11T23:53:12.562Z,8.37
2019-04-11T23:58:14.615Z,8.33
